createdAt,value
2023-05-02T04:44:07.615Z,87.66
2023-05-02T04:46:35.597Z,88.11
2023-05-02T04:49:03.561Z,87.81
2023-05-02T04:51:31.975Z,88.50
2023-05-02T04:54:06.077Z,88.77
2023-05-02T04:56:33.900Z,88.64
2023-05-02T04:59:01.809Z,88.91
2023-05-02T05:01:31.357Z,89.07
2023-05-02T05:03:59.507Z,88.75
2023-05-02T05:06:27.905Z,88.80
2023-05-02T05:08:55.949Z,88.40
2023-05-02T05:11:24.142Z,88.58
2023-05-02T05:13:52.033Z,88.46
2023-05-02T05:16:20.013Z,88.39
2023-05-02T05:18:49.479Z,88.72
2023-05-02T05:21:17.541Z,88.02
2023-05-02T05:23:46.366Z,87.81
2023-05-02T05:26:16.368Z,88.29
2023-05-02T05:28:44.846Z,88.41
2023-05-02T05:31:17.167Z,87.26
2023-05-02T05:33:45.499Z,88.04
2023-05-02T05:36:15.695Z,87.41
2023-05-02T05:38:46.259Z,87.66
2023-05-02T05:41:14.150Z,87.69
2023-05-02T05:43:42.104Z,88.15
2023-05-02T05:46:09.999Z,88.05
2023-05-02T05:48:37.819Z,88.24
2023-05-02T05:51:06.232Z,88.05
2023-05-02T05:53:35.633Z,87.73
2023-05-02T05:56:10.916Z,87.56
2023-05-02T05:58:39.344Z,87.80
2023-05-02T06:01:07.826Z,88.30
2023-05-02T06:03:35.793Z,88.27
2023-05-02T06:06:03.809Z,88.47
2023-05-02T06:08:31.719Z,89.18
2023-05-02T06:11:10.980Z,88.43
2023-05-02T06:13:39.084Z,87.97
2023-05-02T06:16:13.081Z,87.72
2023-05-02T06:18:40.914Z,87.90
2023-05-02T06:21:08.840Z,88.30
2023-05-02T06:23:36.911Z,88.57
2023-05-02T06:26:07.239Z,88.72
2023-05-02T06:28:39.920Z,88.27
2023-05-02T06:31:07.902Z,88.58
2023-05-02T06:33:36.762Z,88.33
2023-05-02T06:36:10.909Z,88.20
2023-05-02T06:38:38.802Z,88.37
2023-05-02T06:41:08.029Z,88.26
2023-05-02T06:43:35.923Z,88.77
2023-05-02T06:46:06.824Z,88.60
2023-05-02T06:48:37.714Z,88.71
2023-05-02T06:51:05.856Z,87.99
2023-05-02T06:53:34.277Z,88.30
2023-05-02T06:56:02.211Z,88.50
2023-05-02T06:58:31.477Z,87.88
2023-05-02T07:00:59.315Z,87.88
2023-05-02T07:03:27.310Z,87.81
2023-05-02T07:05:55.142Z,87.44
2023-05-02T07:08:26.150Z,87.40
2023-05-02T07:10:53.943Z,86.95
2023-05-02T07:13:21.778Z,87.87
2023-05-02T07:15:51.053Z,88.69
2023-05-02T07:18:21.210Z,87.63
2023-05-02T07:20:49.081Z,87.80
2023-05-02T07:23:16.971Z,87.58
2023-05-02T07:25:44.923Z,87.79
2023-05-02T07:28:12.779Z,87.14
2023-05-02T07:30:40.679Z,87.02
2023-05-02T07:33:09.942Z,87.19
2023-05-02T07:35:40.940Z,86.64
2023-05-02T07:38:10.985Z,86.94
2023-05-02T07:40:41.914Z,86.98
2023-05-02T07:43:11.191Z,87.33
2023-05-02T07:45:39.371Z,86.98
2023-05-02T07:48:11.667Z,87.21
2023-05-02T07:50:39.597Z,86.68
2023-05-02T07:53:09.407Z,86.43
2023-05-02T07:55:37.588Z,87.09
2023-05-02T07:58:08.240Z,86.70
2023-05-02T08:00:36.156Z,86.95
2023-05-02T08:03:06.674Z,86.08
2023-05-02T08:05:35.983Z,86.71
2023-05-02T08:08:04.037Z,86.54
2023-05-02T08:10:32.082Z,86.81
2023-05-02T08:13:00.017Z,86.95
2023-05-02T08:15:28.139Z,85.74
2023-05-02T08:17:59.792Z,85.11
2023-05-02T08:20:27.901Z,84.87
2023-05-02T08:22:59.277Z,84.70
2023-05-02T08:25:27.955Z,84.99
2023-05-02T08:27:58.681Z,84.43
2023-05-02T08:30:26.729Z,84.21
2023-05-02T08:32:54.702Z,84.55
2023-05-02T08:35:22.641Z,83.07
2023-05-02T08:37:50.540Z,83.26
2023-05-02T08:40:37.783Z,82.17
2023-05-02T08:43:07.083Z,82.50
2023-05-02T08:45:40.160Z,81.13
2023-05-02T08:48:11.011Z,80.93
2023-05-02T08:50:41.609Z,79.66
2023-05-02T08:53:11.354Z,78.97
2023-05-02T08:55:42.122Z,79.92
2023-05-02T08:58:12.345Z,79.83
2023-05-02T09:00:43.600Z,78.94
2023-05-02T09:03:23.875Z,79.11
2023-05-02T09:05:58.151Z,76.60
2023-05-02T09:08:26.173Z,76.69
2023-05-02T09:10:56.377Z,76.36
2023-05-02T09:13:36.217Z,76.44
2023-05-02T09:16:06.422Z,76.41
2023-05-02T09:18:38.994Z,74.55
2023-05-02T09:21:09.181Z,72.68
2023-05-02T09:23:39.292Z,71.95
2023-05-02T09:26:17.375Z,69.42
2023-05-02T09:28:47.117Z,71.14
2023-05-02T09:31:26.867Z,70.13
2023-05-02T09:34:13.048Z,70.37
2023-05-02T09:36:42.494Z,71.49
2023-05-02T09:39:15.438Z,69.91
2023-05-02T09:41:46.770Z,67.54
2023-05-02T09:44:17.074Z,66.92
2023-05-02T09:46:46.581Z,67.60
2023-05-02T09:49:18.728Z,66.36
2023-05-02T09:51:47.374Z,68.20
2023-05-02T09:54:15.776Z,68.24
2023-05-02T09:56:56.627Z,65.95
2023-05-02T09:59:25.618Z,64.69
2023-05-02T10:01:58.302Z,64.29
2023-05-02T10:04:27.845Z,64.26
2023-05-02T10:06:56.846Z,65.47
2023-05-02T10:09:26.607Z,65.12
2023-05-02T10:11:57.978Z,66.04
2023-05-02T10:14:29.535Z,64.31
2023-05-02T10:17:02.681Z,63.30
2023-05-02T10:19:34.810Z,62.98
2023-05-02T10:22:03.277Z,60.78
2023-05-02T10:24:33.455Z,60.90
2023-05-02T10:27:05.877Z,59.86
2023-05-02T10:29:34.895Z,60.46
2023-05-02T10:32:05.676Z,62.19
2023-05-02T10:34:34.358Z,63.77
2023-05-02T10:37:02.621Z,64.55
2023-05-02T10:39:32.929Z,63.09
2023-05-02T10:42:05.644Z,60.50
2023-05-02T10:44:34.944Z,59.86
2023-05-02T10:47:18.980Z,59.51
2023-05-02T10:49:53.832Z,60.86
2023-05-02T10:52:29.596Z,61.90
2023-05-02T10:55:17.804Z,61.66
2023-05-02T10:58:26.350Z,61.17
2023-05-02T11:00:54.332Z,61.37
2023-05-02T11:22:38.060Z,56.94
2023-05-02T11:25:06.885Z,55.77
2023-05-02T11:27:41.385Z,57.59
2023-05-02T11:30:11.188Z,58.31
2023-05-02T11:33:15.982Z,57.51
2023-05-02T11:35:49.154Z,56.29
2023-05-02T11:38:22.068Z,55.05
2023-05-02T11:40:55.496Z,55.28
2023-05-02T11:43:26.066Z,56.95
2023-05-02T11:45:54.892Z,58.25
2023-05-02T11:48:27.142Z,56.01
2023-05-02T11:50:57.455Z,54.81
2023-05-02T11:53:29.373Z,55.57
2023-05-02T11:55:59.201Z,58.47
2023-05-02T11:58:30.040Z,59.79
2023-05-02T12:00:58.188Z,59.44
2023-05-02T12:03:29.848Z,58.63
2023-05-02T12:05:59.259Z,58.37
2023-05-02T12:08:29.963Z,55.57
2023-05-02T12:10:58.414Z,57.21
2023-05-02T12:13:27.803Z,54.64
2023-05-02T12:15:56.687Z,51.57
2023-05-02T12:18:27.071Z,50.48
2023-05-02T12:20:56.886Z,48.25
2023-05-02T12:23:27.277Z,54.64
2023-05-02T12:25:56.549Z,54.14
2023-05-02T12:28:24.892Z,53.46
2023-05-02T12:30:53.189Z,53.19
2023-05-02T12:33:21.322Z,53.37
2023-05-02T12:35:49.242Z,56.21
2023-05-02T12:38:18.789Z,57.10
2023-05-02T12:40:52.388Z,59.65
2023-05-02T12:43:22.862Z,59.98
2023-05-02T12:45:53.822Z,60.46
2023-05-02T12:48:27.755Z,64.10
2023-05-02T12:50:56.546Z,67.61
2023-05-02T12:53:40.563Z,73.74
2023-05-02T12:56:11.957Z,75.12
2023-05-02T12:58:46.922Z,76.14
2023-05-02T13:01:16.097Z,76.95
2023-05-02T13:03:45.176Z,75.01
2023-05-02T13:06:13.066Z,75.19
2023-05-02T13:08:41.156Z,76.40
2023-05-02T13:11:09.160Z,76.52
2023-05-02T13:13:40.018Z,73.47
2023-05-02T13:16:11.445Z,74.93
2023-05-02T13:18:39.540Z,70.25
2023-05-02T13:21:07.560Z,69.21
2023-05-02T13:23:35.412Z,70.15
2023-05-02T13:26:03.315Z,70.56
2023-05-02T13:28:33.298Z,71.79
2023-05-02T13:31:01.462Z,68.92
2023-05-02T13:33:30.902Z,67.93
2023-05-02T13:35:58.691Z,69.55
2023-05-02T13:38:26.947Z,61.89
2023-05-02T13:40:55.545Z,64.05
2023-05-02T13:43:24.347Z,63.36
2023-05-02T13:45:52.361Z,70.04
2023-05-02T13:48:20.632Z,70.33
2023-05-02T13:50:49.957Z,68.86
2023-05-02T13:53:17.807Z,70.39
2023-05-02T13:55:45.719Z,68.67
2023-05-02T13:58:13.540Z,70.24
2023-05-02T14:00:41.371Z,65.55
2023-05-02T14:03:11.193Z,68.96
2023-05-02T14:05:42.587Z,66.14
2023-05-02T14:08:12.032Z,63.75
2023-05-02T14:10:39.912Z,65.32
2023-05-02T14:13:07.771Z,65.36
2023-05-02T14:15:35.621Z,66.12
2023-05-02T14:18:03.447Z,65.61
2023-05-02T14:20:31.325Z,66.36
2023-05-02T14:23:07.565Z,68.12
2023-05-02T14:25:37.202Z,68.67
2023-05-02T14:28:06.713Z,64.62
2023-05-02T14:30:34.603Z,64.42
2023-05-02T14:33:02.483Z,63.41
2023-05-02T14:35:30.424Z,65.04
2023-05-02T14:37:58.357Z,66.70
2023-05-02T14:40:26.252Z,68.93
2023-05-02T14:42:55.508Z,68.27
2023-05-02T14:45:23.759Z,69.21
2023-05-02T14:47:52.407Z,70.29
2023-05-02T14:50:20.530Z,71.24
2023-05-02T14:52:48.580Z,70.60
2023-05-02T14:55:16.708Z,69.14
2023-05-02T14:57:44.691Z,70.58
2023-05-02T15:00:16.121Z,71.05
2023-05-02T15:02:44.061Z,71.26
2023-05-02T15:05:13.041Z,70.31
2023-05-02T15:07:41.186Z,70.66
2023-05-02T15:10:10.415Z,71.06
2023-05-02T15:12:38.408Z,71.35
2023-05-02T15:15:09.193Z,71.89
2023-05-02T15:17:39.288Z,70.01
2023-05-02T15:20:08.397Z,71.09
2023-05-02T15:22:36.292Z,69.12
2023-05-02T15:25:05.338Z,67.71
2023-05-02T15:27:33.516Z,64.79
2023-05-02T15:30:02.919Z,63.88
2023-05-02T15:32:34.668Z,62.75
2023-05-02T15:35:07.933Z,60.11
2023-05-02T15:37:36.271Z,62.16
2023-05-02T15:40:05.251Z,62.78
2023-05-02T15:42:37.019Z,61.06
2023-05-02T15:45:06.174Z,62.92
2023-05-02T15:47:34.191Z,62.47
2023-05-02T15:50:04.781Z,62.07
2023-05-02T15:53:03.587Z,59.33
2023-05-02T15:55:31.862Z,58.98
2023-05-02T15:57:59.713Z,57.20
2023-05-02T16:00:27.606Z,58.29
2023-05-02T16:02:55.702Z,57.42
2023-05-02T16:05:52.813Z,56.51
2023-05-02T16:08:20.814Z,54.93
2023-05-02T16:10:48.639Z,52.33
2023-05-02T16:13:16.490Z,52.90
2023-05-02T16:15:44.625Z,54.02
2023-05-02T16:18:12.662Z,54.69
2023-05-02T16:20:40.669Z,55.36
2023-05-02T16:23:10.165Z,56.90
2023-05-02T16:25:38.133Z,58.64
2023-05-02T16:28:06.139Z,57.83
2023-05-02T16:30:37.479Z,58.72
2023-05-02T16:33:05.528Z,60.70
2023-05-02T16:35:33.413Z,58.87
2023-05-02T16:38:01.667Z,59.56
2023-05-02T16:40:31.214Z,59.67
2023-05-02T16:42:59.107Z,57.64
2023-05-02T16:45:27.010Z,56.91
2023-05-02T16:47:55.415Z,57.08
2023-05-02T16:50:23.532Z,54.83
2023-05-02T16:52:51.486Z,55.48
2023-05-02T16:55:19.556Z,57.25
2023-05-02T16:57:48.805Z,58.80
2023-05-02T17:00:17.835Z,58.31
2023-05-02T17:02:46.772Z,58.74
2023-05-02T17:05:14.873Z,60.00
2023-05-02T17:07:42.831Z,59.99
2023-05-02T17:10:12.369Z,58.99
2023-05-02T17:12:40.287Z,60.80
2023-05-02T17:15:10.701Z,61.65
2023-05-02T17:17:38.589Z,61.83
2023-05-02T17:20:07.605Z,62.68
2023-05-02T17:22:35.769Z,60.77
2023-05-02T17:25:03.727Z,60.75
2023-05-02T17:27:32.037Z,59.17
2023-05-02T17:30:00.093Z,58.31
2023-05-02T17:32:29.629Z,57.43
2023-05-02T17:34:58.835Z,56.59
2023-05-02T17:37:27.223Z,56.24
2023-05-02T17:39:55.408Z,56.93
2023-05-02T17:42:23.309Z,57.64
2023-05-02T17:44:51.241Z,58.41
2023-05-02T17:47:19.853Z,60.09
2023-05-02T17:49:51.288Z,59.63
2023-05-02T17:52:19.271Z,60.24
2023-05-02T17:54:47.126Z,61.69
2023-05-02T17:57:16.134Z,62.17
2023-05-02T17:59:44.285Z,60.78
2023-05-02T18:02:12.253Z,62.05
2023-05-02T18:04:42.741Z,60.80
2023-05-02T18:07:12.684Z,61.19
2023-05-02T18:09:40.648Z,61.65
2023-05-02T18:12:09.771Z,64.01
2023-05-02T18:14:37.634Z,64.39
2023-05-02T18:17:07.654Z,66.03
2023-05-02T18:19:37.136Z,66.87
2023-05-02T18:22:05.069Z,67.41
2023-05-02T18:24:34.487Z,67.48
2023-05-02T18:27:03.198Z,68.41
2023-05-02T18:29:31.328Z,69.76
2023-05-02T18:31:59.342Z,72.54
2023-05-02T18:34:27.268Z,71.42
2023-05-02T18:36:55.145Z,74.36
2023-05-02T18:39:23.095Z,72.15
2023-05-02T18:41:52.389Z,73.17
2023-05-02T18:44:20.279Z,73.46
2023-05-02T18:46:48.350Z,71.93
2023-05-02T18:49:16.405Z,71.98
2023-05-02T18:51:44.160Z,72.93
2023-05-02T18:54:12.055Z,73.11
2023-05-02T18:56:39.923Z,72.63
2023-05-02T18:59:09.192Z,72.26
2023-05-02T19:01:37.277Z,73.87
2023-05-02T19:04:05.354Z,74.39
2023-05-02T19:06:33.311Z,74.25
2023-05-02T19:09:01.791Z,73.83
2023-05-02T19:11:29.671Z,74.52
2023-05-02T19:13:59.969Z,73.40
2023-05-02T19:16:32.149Z,74.76
2023-05-02T19:19:00.197Z,75.27
2023-05-02T19:21:28.508Z,75.76
2023-05-02T19:23:56.770Z,77.03
2023-05-02T19:26:24.941Z,76.19
2023-05-02T19:28:53.128Z,74.43
2023-05-02T19:31:23.469Z,75.54
2023-05-02T19:33:53.004Z,75.22
2023-05-02T19:36:23.027Z,75.30
2023-05-02T19:38:53.708Z,75.66
2023-05-02T19:41:23.251Z,76.86
2023-05-02T19:43:52.103Z,77.58
2023-05-02T19:46:20.554Z,78.47
2023-05-02T19:48:48.475Z,78.79
2023-05-02T19:51:17.808Z,78.07
2023-05-02T19:53:45.823Z,78.13
2023-05-02T19:56:13.749Z,78.76
2023-05-02T19:58:41.712Z,78.40
2023-05-02T20:01:09.618Z,80.13
2023-05-02T20:03:45.630Z,77.32
2023-05-02T20:06:13.674Z,77.67
2023-05-02T20:08:42.982Z,76.72
2023-05-02T20:11:12.506Z,78.45
2023-05-02T20:13:45.619Z,78.62
2023-05-02T20:16:14.397Z,79.14
2023-05-02T20:18:42.393Z,78.74
2023-05-02T20:21:10.423Z,79.14
2023-05-02T20:23:39.430Z,77.80
2023-05-02T20:26:08.713Z,77.15
2023-05-02T20:28:37.721Z,76.98
2023-05-02T20:31:05.739Z,77.07
2023-05-02T20:33:51.622Z,73.48
2023-05-02T20:36:19.590Z,76.44
2023-05-02T20:38:48.799Z,78.01
2023-05-02T20:41:18.126Z,78.64
2023-05-02T20:43:47.165Z,79.65
2023-05-02T20:46:16.894Z,78.52
2023-05-02T20:48:53.739Z,79.10
2023-05-02T20:51:22.180Z,79.63
2023-05-02T20:53:50.147Z,79.29
2023-05-02T20:56:19.521Z,77.80
2023-05-02T20:58:47.476Z,77.93
2023-05-02T21:01:15.538Z,78.21
2023-05-02T21:03:43.680Z,79.06
2023-05-02T21:06:11.725Z,80.13
2023-05-02T21:08:39.718Z,80.80
2023-05-02T21:11:15.046Z,80.70
2023-05-02T21:13:44.676Z,80.29
2023-05-02T21:16:16.851Z,81.17
2023-05-02T21:18:45.369Z,79.20
2023-05-02T21:21:13.300Z,79.29
2023-05-02T21:23:41.389Z,80.15
2023-05-02T21:26:09.347Z,81.03
2023-05-02T21:28:38.695Z,82.32
2023-05-02T21:31:11.165Z,79.19
2023-05-02T21:33:39.802Z,81.10
2023-05-02T21:36:08.809Z,81.04
2023-05-02T21:38:37.076Z,80.37
2023-05-02T21:41:06.705Z,80.76
2023-05-02T21:43:40.008Z,79.42
2023-05-02T21:46:12.461Z,79.40
2023-05-02T21:48:43.503Z,78.65
2023-05-02T21:51:29.388Z,78.88
2023-05-02T21:54:14.328Z,79.48
2023-05-02T21:56:44.251Z,79.88
2023-05-02T21:59:12.510Z,81.12
2023-05-02T22:01:42.304Z,79.48
2023-05-02T22:04:10.746Z,78.88
2023-05-02T22:06:38.932Z,78.32
2023-05-02T22:09:08.415Z,78.50
2023-05-02T22:11:36.686Z,77.82
2023-05-02T22:14:04.996Z,78.01
2023-05-02T22:16:33.315Z,78.04
2023-05-02T22:19:03.244Z,78.04
2023-05-02T22:21:31.519Z,77.55
2023-05-02T22:23:59.706Z,78.23
2023-05-02T22:26:27.886Z,77.73
2023-05-02T22:28:56.211Z,78.37
2023-05-02T22:31:27.648Z,77.83
2023-05-02T22:33:57.830Z,77.03
2023-05-02T22:36:30.188Z,77.28
2023-05-02T22:38:59.687Z,77.91
2023-05-02T22:41:39.821Z,77.98
2023-05-02T22:44:19.298Z,79.17
2023-05-02T22:53:49.952Z,78.17
2023-05-02T22:59:58.074Z,80.34
2023-05-02T23:02:30.857Z,80.33
2023-05-02T23:08:46.426Z,80.09
2023-05-02T23:15:23.888Z,79.51
2023-05-02T23:17:56.932Z,80.72
2023-05-02T23:20:25.018Z,84.28
2023-05-02T23:22:53.000Z,81.43
2023-05-02T23:25:21.237Z,81.14
2023-05-02T23:27:49.171Z,81.55
2023-05-02T23:30:18.482Z,82.31
2023-05-02T23:32:47.373Z,82.21
2023-05-02T23:35:15.648Z,82.61
2023-05-02T23:37:44.127Z,83.26
2023-05-02T23:40:12.522Z,83.37
2023-05-02T23:42:41.022Z,81.90
2023-05-02T23:45:09.878Z,81.93
2023-05-02T23:47:39.637Z,82.72
2023-05-02T23:50:08.868Z,82.50
2023-05-02T23:55:11.114Z,82.40
2023-05-02T23:57:39.239Z,83.67
